createdAt,value
2018-08-04T00:02:53.028Z,97014.73
2018-08-04T00:07:46.242Z,97001.50
2018-08-04T00:12:39.269Z,97002.22
2018-08-04T00:17:32.316Z,97012.72
2018-08-04T00:22:25.312Z,97018.22
2018-08-04T00:27:18.277Z,97011.41
2018-08-04T00:32:11.314Z,97010.48
2018-08-04T00:37:04.334Z,97008.50
2018-08-04T00:41:57.349Z,97009.72
2018-08-04T00:46:50.336Z,97009.17
2018-08-04T00:51:43.354Z,97010.09
2018-08-04T00:56:36.371Z,97011.56
2018-08-04T01:01:29.416Z,97008.13
2018-08-04T01:06:22.412Z,97006.39
2018-08-04T01:11:15.430Z,97007.64
2018-08-04T01:16:08.423Z,97009.57
2018-08-04T01:21:01.429Z,97007.73
2018-08-04T01:25:54.433Z,97012.05
2018-08-04T01:30:47.456Z,97020.63
2018-08-04T01:35:40.427Z,97024.77
2018-08-04T01:40:33.417Z,97022.45
2018-08-04T01:45:26.355Z,97015.25
2018-08-04T01:50:19.429Z,97009.70
2018-08-04T01:55:12.497Z,97000.32
2018-08-04T02:00:05.838Z,97004.96
2018-08-04T02:04:58.836Z,97007.14
2018-08-04T02:09:52.190Z,96999.94
2018-08-04T02:14:45.180Z,97000.64
2018-08-04T02:19:38.172Z,96998.22
2018-08-04T02:24:31.192Z,97000.55
2018-08-04T02:29:24.164Z,97004.73
2018-08-04T02:34:17.151Z,97007.27
2018-08-04T02:39:10.153Z,97008.61
2018-08-04T02:44:03.177Z,96999.82
2018-08-04T02:48:56.160Z,96999.98
2018-08-04T02:53:49.167Z,97005.34
2018-08-04T02:58:42.153Z,96997.41
2018-08-04T03:03:35.134Z,97008.80
2018-08-04T03:08:28.146Z,97017.81
2018-08-04T03:13:21.144Z,97012.95
2018-08-04T03:18:14.107Z,97017.80
2018-08-04T03:23:07.094Z,97019.73
2018-08-04T03:28:00.176Z,97028.84
2018-08-04T03:32:53.223Z,97026.27
2018-08-04T03:37:46.217Z,97031.41
2018-08-04T03:42:39.673Z,97024.25
2018-08-04T03:47:32.661Z,97034.80
2018-08-04T03:52:25.717Z,97036.52
2018-08-04T03:57:18.726Z,97036.56
2018-08-04T04:02:11.783Z,97040.06
2018-08-04T04:07:05.212Z,97036.87
2018-08-04T04:11:58.226Z,97037.48
2018-08-04T04:16:51.213Z,97039.30
2018-08-04T04:21:44.237Z,97042.70
2018-08-04T04:26:37.233Z,97048.34
2018-08-04T04:31:30.226Z,97049.05
2018-08-04T04:36:23.219Z,97046.73
2018-08-04T04:41:16.233Z,97049.98
2018-08-04T04:46:09.218Z,97052.34
2018-08-04T04:51:02.257Z,97056.18
2018-08-04T04:55:55.236Z,97052.19
2018-08-04T05:00:48.242Z,97049.52
2018-08-04T05:05:41.265Z,97041.63
2018-08-04T05:10:34.283Z,97035.02
2018-08-04T05:15:27.292Z,97034.84
2018-08-04T05:20:20.289Z,97050.47
2018-08-04T05:25:13.279Z,97049.61
2018-08-04T05:30:06.912Z,97050.91
2018-08-04T05:34:59.842Z,97058.66
2018-08-04T05:39:52.902Z,97064.17
2018-08-04T05:44:45.913Z,97059.53
2018-08-04T05:49:38.894Z,97066.64
2018-08-04T05:54:31.916Z,97071.92
2018-08-04T05:59:24.930Z,97063.08
2018-08-04T06:04:17.916Z,97071.47
2018-08-04T06:09:11.682Z,97077.45
2018-08-04T06:14:04.723Z,97081.77
2018-08-04T06:18:57.716Z,97077.19
2018-08-04T06:23:50.720Z,97082.22
2018-08-04T06:28:43.812Z,97083.91
2018-08-04T06:33:36.860Z,97086.32
2018-08-04T06:38:29.897Z,97085.31
2018-08-04T06:43:22.915Z,97078.26
2018-08-04T06:48:15.913Z,97079.55
2018-08-04T06:53:08.964Z,97078.09
2018-08-04T06:58:02.058Z,97075.28
2018-08-04T07:02:55.093Z,97073.53
2018-08-04T07:07:48.178Z,97070.44
2018-08-04T07:12:41.204Z,97071.15
2018-08-04T07:17:34.253Z,97072.18
2018-08-04T07:22:27.232Z,97069.44
2018-08-04T07:27:20.593Z,97075.71
2018-08-04T07:32:13.575Z,97073.07
2018-08-04T07:37:06.695Z,97073.97
2018-08-04T07:41:59.736Z,97078.82
2018-08-04T07:46:52.755Z,97080.77
2018-08-04T07:51:45.764Z,97071.26
2018-08-04T07:56:38.789Z,97077.45
2018-08-04T08:01:31.812Z,97079.17
2018-08-04T08:06:24.852Z,97071.98
2018-08-04T08:11:17.864Z,97070.30
2018-08-04T08:16:10.902Z,97071.53
2018-08-04T08:21:03.916Z,97078.40
2018-08-04T08:26:09.341Z,97068.76
2018-08-04T08:31:03.258Z,97068.49
2018-08-04T08:35:56.281Z,97067.91
2018-08-04T08:40:49.215Z,97065.69
2018-08-04T08:45:42.214Z,97066.00
2018-08-04T08:50:35.236Z,97057.31
2018-08-04T08:55:28.264Z,97063.73
2018-08-04T09:00:21.312Z,97062.41
2018-08-04T09:05:14.352Z,97059.61
2018-08-04T09:10:11.320Z,97059.82
2018-08-04T09:15:04.561Z,97057.95
2018-08-04T09:19:57.621Z,97060.95
2018-08-04T09:24:50.668Z,97064.25
2018-08-04T09:29:43.749Z,97056.18
2018-08-04T09:34:37.263Z,97060.77
2018-08-04T09:39:30.309Z,97060.67
2018-08-04T09:44:23.363Z,97060.53
2018-08-04T09:49:16.389Z,97043.30
2018-08-04T09:54:09.407Z,97047.29
2018-08-04T09:59:02.432Z,97048.59
2018-08-04T10:03:55.477Z,97038.19
2018-08-04T10:08:48.478Z,97025.94
2018-08-04T10:13:41.500Z,97027.02
2018-08-04T10:18:34.556Z,97014.14
2018-08-04T10:23:27.624Z,97018.41
2018-08-04T10:28:20.618Z,97010.67
2018-08-04T10:33:13.654Z,97017.34
2018-08-04T10:38:06.672Z,97018.71
2018-08-04T10:42:59.721Z,97010.13
2018-08-04T10:47:52.726Z,97008.53
2018-08-04T10:52:45.749Z,96999.47
2018-08-04T10:57:38.707Z,97005.53
2018-08-04T11:02:31.710Z,97002.88
2018-08-04T11:07:24.727Z,97003.09
2018-08-04T11:12:17.741Z,97008.48
2018-08-04T11:17:10.735Z,96998.25
2018-08-04T11:22:03.847Z,97005.79
2018-08-04T11:26:56.904Z,97004.06
2018-08-04T11:31:49.922Z,97010.67
2018-08-04T11:36:42.885Z,96997.41
2018-08-04T11:41:35.937Z,96984.25
2018-08-04T11:46:28.967Z,96980.95
2018-08-04T11:51:21.972Z,97003.27
2018-08-04T11:56:14.902Z,97036.83
2018-08-04T12:01:07.924Z,97018.50
2018-08-04T12:06:00.906Z,97029.81
2018-08-04T12:10:53.972Z,97035.52
2018-08-04T12:15:46.988Z,97019.83
2018-08-04T12:20:40.032Z,97023.41
2018-08-04T12:25:33.138Z,97001.20
2018-08-04T12:30:26.068Z,96992.89
2018-08-04T12:35:19.088Z,96978.80
2018-08-04T12:40:12.100Z,96984.86
2018-08-04T12:45:05.713Z,96980.52
2018-08-04T12:49:58.904Z,96980.80
2018-08-04T12:54:51.968Z,96983.66
2018-08-04T12:59:45.069Z,96979.25
2018-08-04T13:04:38.071Z,96979.04
2018-08-04T13:09:31.075Z,96960.16
2018-08-04T13:14:24.160Z,96964.66
2018-08-04T13:19:17.176Z,96958.81
2018-08-04T13:24:10.172Z,96951.11
2018-08-04T13:29:03.169Z,96949.25
2018-08-04T13:33:56.139Z,96949.38
2018-08-04T13:38:49.164Z,96947.84
2018-08-04T13:43:42.189Z,96942.99
2018-08-04T13:48:35.138Z,96944.25
2018-08-04T13:53:28.166Z,96947.69
2018-08-04T13:58:21.168Z,96951.27
2018-08-04T14:03:14.174Z,96951.42
2018-08-04T14:08:07.236Z,96946.55
2018-08-04T14:13:00.236Z,96951.89
2018-08-04T14:17:53.244Z,96949.22
2018-08-04T14:22:46.346Z,96944.92
2018-08-04T14:27:39.381Z,96943.23
2018-08-04T14:32:32.409Z,96944.01
2018-08-04T14:37:25.501Z,96942.69
2018-08-04T14:42:18.521Z,96922.41
2018-08-04T14:47:11.516Z,96921.67
2018-08-04T14:52:04.579Z,96920.17
2018-08-04T14:56:57.575Z,96923.66
2018-08-04T15:01:50.623Z,96927.32
2018-08-04T15:06:43.640Z,96934.72
2018-08-04T15:11:36.705Z,96929.88
2018-08-04T15:16:29.768Z,96933.19
2018-08-04T15:21:22.803Z,96926.00
2018-08-04T15:26:15.812Z,96922.74
2018-08-04T15:31:08.848Z,96921.30
2018-08-04T15:36:01.875Z,96916.75
2018-08-04T15:40:54.883Z,96914.36
2018-08-04T15:45:47.992Z,96909.09
2018-08-04T15:50:41.033Z,96903.41
2018-08-04T15:55:34.076Z,96903.61
2018-08-04T16:00:27.100Z,96902.91
2018-08-04T16:05:20.146Z,96906.17
2018-08-04T16:10:13.141Z,96902.15
2018-08-04T16:15:06.148Z,96894.26
2018-08-04T16:19:59.096Z,96889.96
2018-08-04T16:24:52.132Z,96890.48
2018-08-04T16:29:45.330Z,96895.23
2018-08-04T16:34:38.819Z,96902.91
2018-08-04T16:39:31.750Z,96907.16
2018-08-04T16:44:24.728Z,96912.45
2018-08-04T16:49:17.791Z,96911.95
2018-08-04T16:54:10.783Z,96914.16
2018-08-04T16:59:03.823Z,96913.69
2018-08-04T17:03:56.855Z,96908.08
2018-08-04T17:08:49.803Z,96919.03
2018-08-04T17:13:42.828Z,96915.86
2018-08-04T17:18:35.857Z,96915.84
2018-08-04T17:23:28.852Z,96918.84
2018-08-04T17:28:21.943Z,96929.98
2018-08-04T17:33:14.925Z,96928.58
2018-08-04T17:38:07.917Z,96931.51
2018-08-04T17:43:00.854Z,96917.08
2018-08-04T17:47:53.980Z,96924.27
2018-08-04T17:52:47.009Z,96935.88
2018-08-04T17:57:40.049Z,96943.73
2018-08-04T18:02:33.040Z,96941.16
2018-08-04T18:07:26.136Z,96941.06
2018-08-04T18:12:19.157Z,96947.31
2018-08-04T18:17:12.162Z,96947.81
2018-08-04T18:22:05.316Z,96946.73
2018-08-04T18:26:58.361Z,96950.48
2018-08-04T18:31:51.387Z,96955.86
2018-08-04T18:36:44.396Z,96954.05
2018-08-04T18:41:37.442Z,96963.81
2018-08-04T18:46:30.460Z,96963.85
2018-08-04T18:51:23.480Z,96965.73
2018-08-04T18:56:16.476Z,96968.05
2018-08-04T19:01:09.505Z,96973.76
2018-08-04T19:06:02.438Z,96977.63
2018-08-04T19:10:55.484Z,96974.98
2018-08-04T19:15:48.509Z,96986.64
2018-08-04T19:20:41.592Z,96983.39
2018-08-04T19:25:34.528Z,96983.96
2018-08-04T19:30:27.527Z,96987.69
2018-08-04T19:35:20.439Z,96985.18
2018-08-04T19:40:13.637Z,96984.25
2018-08-04T19:45:06.904Z,96982.34
2018-08-04T19:49:59.937Z,96986.39
2018-08-04T19:54:53.045Z,96988.73
2018-08-04T19:59:46.025Z,96990.05
2018-08-04T20:04:39.009Z,96992.22
2018-08-04T20:09:32.039Z,96996.88
2018-08-04T20:14:25.049Z,96996.39
2018-08-04T20:19:18.051Z,96993.58
2018-08-04T20:24:11.061Z,96996.09
2018-08-04T20:29:03.982Z,96997.09
2018-08-04T20:33:57.004Z,97002.72
2018-08-04T20:38:50.022Z,96998.94
2018-08-04T20:43:43.020Z,97006.90
2018-08-04T20:48:36.012Z,97006.86
2018-08-04T20:53:29.024Z,97009.02
2018-08-04T20:58:22.125Z,97008.02
2018-08-04T21:03:15.057Z,97009.96
2018-08-04T21:08:08.095Z,97006.19
2018-08-04T21:13:01.212Z,97010.92
2018-08-04T21:17:54.269Z,97009.69
2018-08-04T21:22:47.267Z,97010.07
2018-08-04T21:27:40.252Z,96999.65
2018-08-04T21:32:33.240Z,97005.03
2018-08-04T21:37:26.291Z,97000.12
2018-08-04T21:42:19.315Z,97002.91
2018-08-04T21:47:12.293Z,97005.22
2018-08-04T21:52:05.899Z,96999.98
2018-08-04T21:56:58.882Z,96999.34
2018-08-04T22:01:56.149Z,96999.01
2018-08-04T22:08:03.993Z,96999.66
2018-08-04T22:12:57.601Z,96998.59
2018-08-04T22:17:50.644Z,97000.75
2018-08-04T22:22:44.038Z,97000.78
2018-08-04T22:27:36.979Z,97004.31
2018-08-04T22:32:29.972Z,97003.31
2018-08-04T22:37:22.970Z,97002.62
2018-08-04T22:42:16.050Z,97011.86
2018-08-04T22:47:09.041Z,97010.76
2018-08-04T22:52:02.060Z,97013.95
2018-08-04T22:56:55.036Z,97006.00
2018-08-04T23:01:48.040Z,97012.08
2018-08-04T23:06:41.047Z,97005.68
2018-08-04T23:11:34.052Z,97013.81
2018-08-04T23:16:27.024Z,97016.95
2018-08-04T23:21:20.029Z,97017.73
2018-08-04T23:26:13.037Z,97015.78
2018-08-04T23:31:06.008Z,97020.34
2018-08-04T23:35:58.955Z,97019.39
2018-08-04T23:40:52.074Z,97018.05
2018-08-04T23:45:45.092Z,97018.30
2018-08-04T23:50:38.109Z,97019.81
2018-08-04T23:55:31.119Z,97019.19
